Time;durP1;ratioP1;P1;durP2;ratioP2;P2;SDS_P1;SDS_P2;PMS_P1;PMS_P2;Temp;Humidity;BMP_temperature;BMP_pressure;BME280_temperature;BME280_humidity;BME280_pressure;Samples;Min_cycle;Max_cycle;Signal;HPM_P1;HPM_P2
2021/10/19 00:02:02;;;;;;;16.73;14.20;;;7.00;99.90;;;;;;4986660;28;20224;-78
2021/10/19 00:04:29;;;;;;;13.47;11.17;;;7.10;99.90;;;;;;4987703;28;20191;-78
2021/10/19 00:06:56;;;;;;;13.97;11.93;;;7.10;99.90;;;;;;4988163;28;20269;-78
2021/10/19 00:09:23;;;;;;;16.10;13.73;;;7.10;99.90;;;;;;4969098;28;20236;-78
2021/10/19 00:11:51;;;;;;;14.27;12.03;;;7.10;99.90;;;;;;4954508;28;20631;-78
2021/10/19 00:14:18;;;;;;;14.57;11.87;;;7.00;99.90;;;;;;4987827;28;20201;-78
2021/10/19 00:16:45;;;;;;;15.13;12.77;;;6.90;99.90;;;;;;4987230;28;20743;-79
2021/10/19 00:19:12;;;;;;;21.87;19.97;;;6.90;99.90;;;;;;4970509;28;20268;-78
2021/10/19 00:21:38;;;;;;;18.87;16.90;;;6.90;99.90;;;;;;4969982;28;20290;-78
2021/10/19 00:24:05;;;;;;;15.77;13.20;;;6.80;99.90;;;;;;4970534;28;20210;-78
2021/10/19 00:26:32;;;;;;;16.07;13.13;;;6.80;99.90;;;;;;4968263;28;20610;-78
2021/10/19 00:29:00;;;;;;;22.47;20.57;;;6.80;99.90;;;;;;4987360;28;20219;-78
2021/10/19 00:31:27;;;;;;;16.87;15.20;;;6.70;99.90;;;;;;4986527;28;20715;-78
2021/10/19 00:33:54;;;;;;;13.93;12.43;;;6.70;99.90;;;;;;4970259;28;20198;-79
2021/10/19 00:36:21;;;;;;;18.00;16.17;;;6.80;99.90;;;;;;4970256;28;20265;-78
2021/10/19 00:38:48;;;;;;;21.23;19.43;;;6.90;99.90;;;;;;4987156;28;20194;-78
2021/10/19 00:41:15;;;;;;;15.57;14.07;;;6.90;99.90;;;;;;4987433;28;20230;-78
2021/10/19 00:43:42;;;;;;;16.37;14.77;;;6.90;99.90;;;;;;4985323;28;20631;-78
2021/10/19 00:46:14;;;;;;;11.93;10.23;;;7.00;99.90;;;;;;4990101;28;20198;-78
2021/10/19 00:48:42;;;;;;;13.43;12.03;;;7.00;99.90;;;;;;4985174;28;20219;-78
2021/10/19 00:51:09;;;;;;;21.00;19.27;;;7.00;99.90;;;;;;4983831;28;20230;-78
2021/10/19 00:53:36;;;;;;;20.37;18.47;;;7.00;99.90;;;;;;4990085;28;20743;-78
2021/10/19 00:56:04;;;;;;;18.07;16.33;;;7.10;99.90;;;;;;4983821;28;20257;-78
2021/10/19 00:58:30;;;;;;;15.27;12.10;;;7.00;99.90;;;;;;4990571;28;20257;-78
2021/10/19 01:00:57;;;;;;;19.40;17.60;;;7.00;99.90;;;;;;4966236;28;20227;-79
2021/10/19 01:03:25;;;;;;;23.50;21.70;;;7.00;99.90;;;;;;4983961;28;20240;-78
2021/10/19 01:05:53;;;;;;;14.20;11.93;;;6.90;99.90;;;;;;4980888;28;20565;-78
2021/10/19 01:08:19;;;;;;;20.37;18.77;;;6.90;99.90;;;;;;4967287;28;20594;-78
2021/10/19 01:10:46;;;;;;;17.50;15.87;;;6.90;99.90;;;;;;4980232;28;20221;-78
2021/10/19 01:13:14;;;;;;;17.13;15.40;;;6.90;99.90;;;;;;4980935;28;20207;-78
2021/10/19 01:15:41;;;;;;;14.77;13.37;;;6.90;99.90;;;;;;4983488;28;20195;-78
2021/10/19 01:18:07;;;;;;;11.90;10.50;;;7.00;99.90;;;;;;4960676;28;20629;-78
2021/10/19 01:20:37;;;;;;;15.57;14.17;;;7.00;99.90;;;;;;4984831;28;20207;-78
2021/10/19 01:23:05;;;;;;;13.27;11.97;;;7.00;99.90;;;;;;4968582;28;20206;-78
2021/10/19 01:25:33;;;;;;;18.53;17.03;;;7.00;99.90;;;;;;4986634;28;20221;-78
2021/10/19 01:28:02;;;;;;;15.63;14.00;;;7.00;99.90;;;;;;4982899;28;20220;-77
2021/10/19 01:30:29;;;;;;;19.67;17.93;;;7.10;99.90;;;;;;4979919;28;20641;-78
2021/10/19 01:32:57;;;;;;;13.10;11.37;;;7.00;99.90;;;;;;4962735;28;20291;-78
2021/10/19 01:35:34;;;;;;;13.10;11.30;;;7.00;99.90;;;;;;4967426;28;20219;-78
2021/10/19 01:38:02;;;;;;;20.63;19.00;;;7.00;99.90;;;;;;4958882;28;20194;-78
2021/10/19 01:40:30;;;;;;;21.27;19.57;;;7.00;99.90;;;;;;4983856;28;20284;-78
2021/10/19 01:42:57;;;;;;;20.40;18.73;;;7.00;99.90;;;;;;4968549;28;20202;-78
2021/10/19 01:45:24;;;;;;;19.80;18.30;;;7.00;99.90;;;;;;4968814;28;20209;-78
2021/10/19 01:47:50;;;;;;;16.53;15.07;;;7.00;99.90;;;;;;4955672;28;20242;-78
2021/10/19 01:50:19;;;;;;;19.00;17.40;;;6.90;99.90;;;;;;4981320;28;20684;-78
2021/10/19 01:52:47;;;;;;;18.13;16.73;;;7.00;99.90;;;;;;4967020;28;20215;-78
2021/10/19 01:55:16;;;;;;;15.40;14.07;;;7.00;99.90;;;;;;4965548;28;20210;-78
2021/10/19 01:57:43;;;;;;;15.27;13.70;;;7.00;99.90;;;;;;4983591;28;20230;-78
2021/10/19 02:00:11;;;;;;;10.23;9.23;;;7.00;99.90;;;;;;4980871;28;20219;-78
2021/10/19 02:02:38;;;;;;;15.77;14.37;;;7.00;99.90;;;;;;4960864;28;20211;-78
2021/10/19 02:05:06;;;;;;;16.40;15.00;;;7.10;99.90;;;;;;4985826;28;20210;-78
2021/10/19 02:07:33;;;;;;;16.50;15.30;;;7.10;99.90;;;;;;4964265;28;20453;-78
2021/10/19 02:10:00;;;;;;;14.37;12.47;;;7.10;99.90;;;;;;4984277;28;20218;-78
2021/10/19 02:12:28;;;;;;;10.03;9.03;;;7.10;99.90;;;;;;4985138;28;20195;-78
2021/10/19 02:14:55;;;;;;;10.50;9.40;;;7.20;99.90;;;;;;4980178;28;20605;-78
2021/10/19 02:17:22;;;;;;;11.60;9.57;;;7.20;99.90;;;;;;4962341;28;20242;-78
2021/10/19 02:19:49;;;;;;;11.00;9.37;;;7.20;99.90;;;;;;4965271;28;20199;-77
2021/10/19 02:22:17;;;;;;;9.83;8.27;;;7.20;99.90;;;;;;4961518;28;20646;-78
2021/10/19 02:24:43;;;;;;;13.07;11.73;;;7.30;99.90;;;;;;4984335;28;20209;-78
2021/10/19 02:27:10;;;;;;;10.97;9.90;;;7.30;99.90;;;;;;4982801;28;20267;-78
2021/10/19 02:29:39;;;;;;;9.73;8.70;;;7.30;99.90;;;;;;4984300;28;20290;-78
2021/10/19 02:32:06;;;;;;;8.73;7.83;;;7.40;99.90;;;;;;4981752;28;20215;-78
2021/10/19 02:34:33;;;;;;;9.47;8.47;;;7.40;99.90;;;;;;4965656;28;20256;-78
2021/10/19 02:36:59;;;;;;;10.43;9.00;;;7.50;99.90;;;;;;4968240;28;20211;-78
2021/10/19 02:39:26;;;;;;;10.00;9.00;;;7.50;99.90;;;;;;4965984;28;20195;-78
2021/10/19 02:41:53;;;;;;;9.30;8.30;;;7.60;99.90;;;;;;4979508;28;20588;-76
2021/10/19 02:44:20;;;;;;;9.33;8.40;;;7.60;99.90;;;;;;4978600;28;20214;-77
2021/10/19 02:46:48;;;;;;;10.27;9.20;;;7.60;99.90;;;;;;4957070;28;20204;-77
2021/10/19 02:49:15;;;;;;;9.40;8.40;;;7.70;99.90;;;;;;4983892;28;20251;-78
2021/10/19 02:51:42;;;;;;;11.43;9.80;;;7.70;99.90;;;;;;4967573;28;20220;-78
2021/10/19 02:54:10;;;;;;;18.57;17.17;;;7.80;99.90;;;;;;4970760;28;20674;-78
2021/10/19 02:56:38;;;;;;;17.27;15.83;;;7.80;99.90;;;;;;4967892;28;20212;-79
2021/10/19 02:59:04;;;;;;;19.83;18.43;;;7.80;99.90;;;;;;4973122;28;20205;-78
2021/10/19 03:01:32;;;;;;;19.20;17.80;;;7.80;99.90;;;;;;4961761;28;20727;-78
2021/10/19 03:04:00;;;;;;;21.40;19.50;;;7.80;99.90;;;;;;4980084;28;20695;-78
2021/10/19 03:06:27;;;;;;;22.97;21.27;;;7.90;99.90;;;;;;4961379;28;20627;-78
2021/10/19 03:08:54;;;;;;;20.80;19.20;;;7.90;99.90;;;;;;4980185;28;20728;-78
2021/10/19 03:11:21;;;;;;;19.50;17.87;;;7.90;99.90;;;;;;4978914;28;20223;-78
2021/10/19 03:13:48;;;;;;;21.43;19.80;;;7.90;99.90;;;;;;4976105;28;20199;-78
2021/10/19 03:16:15;;;;;;;23.10;21.30;;;7.90;99.90;;;;;;4950426;28;20206;-78
2021/10/19 03:18:42;;;;;;;21.07;19.40;;;8.00;99.90;;;;;;4971628;28;20204;-77
2021/10/19 03:21:10;;;;;;;21.10;19.50;;;8.00;99.90;;;;;;4971671;28;20259;-77
2021/10/19 03:23:37;;;;;;;22.87;21.07;;;8.00;99.90;;;;;;4965422;28;20197;-77
2021/10/19 03:26:04;;;;;;;19.60;18.20;;;8.00;99.90;;;;;;4977527;28;20688;-77
2021/10/19 03:28:31;;;;;;;21.30;19.43;;;8.00;99.90;;;;;;4960139;28;20713;-78
2021/10/19 03:30:58;;;;;;;20.57;18.97;;;8.00;99.90;;;;;;4980689;28;20308;-78
2021/10/19 03:33:25;;;;;;;20.10;18.60;;;8.10;99.90;;;;;;4964178;28;20257;-78
2021/10/19 03:35:52;;;;;;;20.30;18.70;;;8.10;99.90;;;;;;4955373;28;20207;-78
2021/10/19 03:38:20;;;;;;;20.70;19.20;;;8.10;99.90;;;;;;4984576;28;20332;-79
2021/10/19 03:40:47;;;;;;;20.40;18.80;;;8.20;99.90;;;;;;4988424;28;20225;-78
2021/10/19 03:43:14;;;;;;;20.73;19.13;;;8.20;99.90;;;;;;4960204;28;20740;-78
2021/10/19 03:45:41;;;;;;;21.60;20.00;;;8.20;99.90;;;;;;4977019;28;20214;-78
2021/10/19 03:48:08;;;;;;;19.87;18.47;;;8.20;99.90;;;;;;4966737;28;20204;-78
2021/10/19 03:50:34;;;;;;;18.70;17.30;;;8.20;99.90;;;;;;4985853;28;20224;-78
2021/10/19 03:53:01;;;;;;;18.87;17.57;;;8.20;99.90;;;;;;4967477;28;20892;-78
2021/10/19 03:55:29;;;;;;;10.30;8.67;;;8.20;99.90;;;;;;4985008;28;20266;-78
2021/10/19 03:57:56;;;;;;;18.73;17.33;;;8.20;99.90;;;;;;4955758;28;20216;-77
2021/10/19 04:00:23;;;;;;;17.20;15.80;;;8.20;99.90;;;;;;4988045;28;20217;-78
2021/10/19 04:02:50;;;;;;;14.37;12.97;;;8.30;99.90;;;;;;4958233;28;20251;-78
2021/10/19 04:05:17;;;;;;;8.53;7.63;;;8.30;99.90;;;;;;4983656;28;20263;-78
2021/10/19 04:07:45;;;;;;;10.43;9.13;;;8.30;99.90;;;;;;4986900;28;20232;-78
2021/10/19 04:10:13;;;;;;;9.67;8.17;;;8.30;99.90;;;;;;4984494;28;20252;-79
2021/10/19 04:12:42;;;;;;;9.43;8.23;;;8.30;99.90;;;;;;4969092;28;20209;-79
2021/10/19 04:15:09;;;;;;;16.07;14.70;;;8.30;99.90;;;;;;4996016;28;20247;-78
2021/10/19 04:17:36;;;;;;;14.07;12.97;;;8.30;99.90;;;;;;4992048;28;20202;-78
2021/10/19 04:20:04;;;;;;;13.37;12.23;;;8.30;99.90;;;;;;4968744;28;20266;-79
2021/10/19 04:22:30;;;;;;;12.80;11.73;;;8.30;99.90;;;;;;4984990;28;20623;-78
2021/10/19 04:24:58;;;;;;;14.47;13.37;;;8.30;99.90;;;;;;4967084;28;20205;-78
2021/10/19 04:27:26;;;;;;;17.43;16.20;;;8.30;99.90;;;;;;4986789;28;20204;-78
2021/10/19 04:29:54;;;;;;;14.77;13.57;;;8.30;99.90;;;;;;4970103;28;20214;-80
2021/10/19 04:32:21;;;;;;;18.10;16.80;;;8.40;99.90;;;;;;4964360;28;20218;-78
2021/10/19 04:34:50;;;;;;;16.80;15.57;;;8.40;99.90;;;;;;4985179;28;20535;-78
2021/10/19 04:37:17;;;;;;;15.43;14.20;;;8.40;99.90;;;;;;4984359;28;20198;-78
2021/10/19 04:39:44;;;;;;;16.73;15.47;;;8.40;99.90;;;;;;4986231;28;20729;-79
2021/10/19 04:42:11;;;;;;;17.00;15.60;;;8.40;99.90;;;;;;4997265;28;20228;-79
2021/10/19 04:44:38;;;;;;;15.97;14.77;;;8.40;99.90;;;;;;4977455;28;20271;-79
2021/10/19 04:47:06;;;;;;;16.27;14.97;;;8.30;99.90;;;;;;4988091;28;20208;-80
2021/10/19 04:49:35;;;;;;;14.40;13.00;;;8.40;99.90;;;;;;4963757;28;20219;-79
2021/10/19 04:52:02;;;;;;;14.83;13.53;;;8.30;99.90;;;;;;4970568;28;20224;-79
2021/10/19 04:54:29;;;;;;;10.57;9.60;;;8.30;99.90;;;;;;4983500;28;20260;-79
2021/10/19 04:56:55;;;;;;;13.27;12.17;;;8.40;99.90;;;;;;4971859;28;20239;-79
2021/10/19 04:59:22;;;;;;;9.83;7.93;;;8.40;99.90;;;;;;4970547;28;20722;-79
2021/10/19 05:01:49;;;;;;;16.60;15.30;;;8.40;99.90;;;;;;4972177;28;20275;-79
2021/10/19 05:04:17;;;;;;;9.20;7.30;;;8.40;99.90;;;;;;4981281;28;20197;-81
2021/10/19 05:06:44;;;;;;;18.10;16.77;;;8.40;99.90;;;;;;4983280;28;20756;-79
2021/10/19 05:09:13;;;;;;;17.00;15.80;;;8.50;99.90;;;;;;4982740;28;20217;-79
2021/10/19 05:11:40;;;;;;;19.43;18.13;;;8.50;99.90;;;;;;4988127;28;20233;-79
2021/10/19 05:14:07;;;;;;;19.90;18.47;;;8.50;99.90;;;;;;4978231;28;20273;-79
2021/10/19 05:16:33;;;;;;;20.03;18.60;;;8.50;99.90;;;;;;4967489;28;20209;-79
2021/10/19 05:19:00;;;;;;;15.77;14.67;;;8.50;99.90;;;;;;4969678;28;20197;-81
2021/10/19 05:21:29;;;;;;;17.70;16.30;;;8.50;99.90;;;;;;4969167;28;20650;-79
2021/10/19 05:23:55;;;;;;;16.00;14.90;;;8.60;99.90;;;;;;4970909;28;20645;-80
2021/10/19 05:26:22;;;;;;;15.37;14.23;;;8.60;99.90;;;;;;4986205;28;20208;-80
2021/10/19 05:28:49;;;;;;;13.97;12.77;;;8.60;99.90;;;;;;4981489;28;20651;-80
2021/10/19 05:31:16;;;;;;;13.27;12.27;;;8.70;99.90;;;;;;4962931;28;20233;-79
2021/10/19 05:33:43;;;;;;;11.93;11.03;;;8.70;99.90;;;;;;4969536;28;20628;-80
2021/10/19 05:36:09;;;;;;;10.73;9.90;;;8.80;99.90;;;;;;4968919;28;20208;-79
2021/10/19 05:38:38;;;;;;;9.80;9.00;;;8.80;99.90;;;;;;4985759;28;20256;-80
2021/10/19 05:41:05;;;;;;;9.10;8.30;;;8.80;99.90;;;;;;4985101;28;20801;-80
2021/10/19 05:43:32;;;;;;;8.13;7.33;;;8.80;99.90;;;;;;4963482;28;20252;-79
2021/10/19 05:45:58;;;;;;;9.10;8.00;;;8.90;99.90;;;;;;4958745;28;20255;-80
2021/10/19 05:48:25;;;;;;;7.63;6.83;;;8.80;99.90;;;;;;4957586;28;20205;-79
2021/10/19 05:50:52;;;;;;;8.23;7.43;;;8.80;99.90;;;;;;4985282;28;20224;-79
2021/10/19 05:53:19;;;;;;;9.43;8.10;;;8.80;99.90;;;;;;4967024;28;20198;-79
2021/10/19 05:55:47;;;;;;;8.57;7.67;;;8.80;99.90;;;;;;4959613;28;20697;-79
2021/10/19 05:58:14;;;;;;;10.03;8.20;;;8.80;99.90;;;;;;4982335;28;20212;-79
2021/10/19 06:00:41;;;;;;;11.03;8.30;;;8.80;99.90;;;;;;4963378;28;20217;-79
2021/10/19 06:03:08;;;;;;;11.20;8.00;;;8.90;99.90;;;;;;4967975;28;20267;-79
2021/10/19 06:05:35;;;;;;;8.10;7.30;;;8.90;99.90;;;;;;4964441;28;20206;-80
2021/10/19 06:08:02;;;;;;;9.20;8.20;;;8.90;99.90;;;;;;4981660;28;20194;-80
2021/10/19 06:10:30;;;;;;;9.43;7.43;;;9.00;99.90;;;;;;4960342;28;20229;-80
2021/10/19 06:12:58;;;;;;;8.37;7.10;;;9.00;99.90;;;;;;4970118;28;20213;-79
2021/10/19 06:15:26;;;;;;;8.57;7.67;;;9.00;99.90;;;;;;4965689;28;20567;-80
2021/10/19 06:17:53;;;;;;;8.43;7.27;;;9.00;99.90;;;;;;4968554;28;20247;-79
2021/10/19 06:20:21;;;;;;;9.10;8.20;;;9.00;99.90;;;;;;4965686;28;20312;-80
2021/10/19 06:22:48;;;;;;;9.80;8.80;;;9.10;99.90;;;;;;4983348;28;20194;-80
2021/10/19 06:25:14;;;;;;;8.83;7.50;;;9.10;99.90;;;;;;4961067;28;20276;-80
2021/10/19 06:27:41;;;;;;;11.10;9.20;;;9.10;99.90;;;;;;4957532;28;20210;-80
2021/10/19 06:30:10;;;;;;;16.70;15.40;;;9.20;99.90;;;;;;4980826;28;20641;-80
2021/10/19 06:32:40;;;;;;;12.07;11.07;;;9.30;99.90;;;;;;4967908;28;20217;-79
2021/10/19 06:35:09;;;;;;;16.47;15.10;;;9.30;99.90;;;;;;4968414;28;20209;-79
2021/10/19 06:37:36;;;;;;;17.20;16.00;;;9.30;99.90;;;;;;4983575;28;20202;-78
2021/10/19 06:40:04;;;;;;;18.20;16.90;;;9.30;99.90;;;;;;4984810;28;20631;-79
2021/10/19 06:42:31;;;;;;;9.33;7.53;;;9.40;99.90;;;;;;4966018;28;20209;-78
2021/10/19 06:45:00;;;;;;;9.53;8.37;;;9.40;99.90;;;;;;4964427;28;20264;-78
2021/10/19 06:47:29;;;;;;;7.30;6.60;;;9.40;99.90;;;;;;4982111;28;20220;-79
2021/10/19 06:49:55;;;;;;;7.87;6.50;;;9.40;99.90;;;;;;4966752;28;20256;-79
2021/10/19 06:52:22;;;;;;;7.37;6.50;;;9.40;99.90;;;;;;4964642;28;20226;-78
2021/10/19 06:54:49;;;;;;;7.43;6.63;;;9.50;99.90;;;;;;4966182;28;20202;-78
2021/10/19 06:57:16;;;;;;;9.07;8.27;;;9.50;99.90;;;;;;4966089;28;20201;-78
2021/10/19 06:59:43;;;;;;;8.33;6.50;;;9.50;99.90;;;;;;4978914;28;20706;-78
2021/10/19 07:02:10;;;;;;;12.60;11.60;;;9.60;99.90;;;;;;4980701;28;20218;-79
2021/10/19 07:04:38;;;;;;;9.60;8.80;;;9.60;99.90;;;;;;4982582;28;20225;-79
2021/10/19 07:07:05;;;;;;;8.13;7.33;;;9.60;99.90;;;;;;4964411;28;20205;-78
2021/10/19 07:09:32;;;;;;;7.73;6.90;;;9.60;99.90;;;;;;4981909;28;20691;-78
2021/10/19 07:12:01;;;;;;;8.53;6.13;;;9.70;99.90;;;;;;4980615;28;20269;-78
2021/10/19 07:14:27;;;;;;;7.00;5.93;;;9.80;99.90;;;;;;4968505;28;20231;-78
2021/10/19 07:16:54;;;;;;;7.50;6.50;;;9.80;99.90;;;;;;4963070;28;20201;-78
2021/10/19 07:19:21;;;;;;;6.53;5.90;;;9.90;99.90;;;;;;4962238;28;20206;-79
2021/10/19 07:21:50;;;;;;;7.93;6.63;;;10.00;99.90;;;;;;4983583;28;20209;-79
2021/10/19 07:24:17;;;;;;;7.63;6.57;;;10.10;99.90;;;;;;4981800;28;20273;-78
2021/10/19 07:26:43;;;;;;;7.30;6.40;;;10.10;99.90;;;;;;4983449;28;20260;-79
2021/10/19 07:29:10;;;;;;;7.70;6.90;;;10.20;99.90;;;;;;4955641;28;20263;-79
2021/10/19 07:31:37;;;;;;;7.50;6.70;;;10.20;99.90;;;;;;4983158;28;20221;-80
2021/10/19 07:34:04;;;;;;;7.70;6.60;;;10.30;99.90;;;;;;4982996;28;20288;-79
2021/10/19 07:36:31;;;;;;;7.10;6.40;;;10.30;99.90;;;;;;4980752;28;20229;-78
2021/10/19 07:39:00;;;;;;;7.97;7.13;;;10.30;99.90;;;;;;4965760;28;20209;-78
2021/10/19 07:41:27;;;;;;;8.33;7.53;;;10.40;99.90;;;;;;4964497;28;20241;-78
2021/10/19 07:43:53;;;;;;;9.80;9.00;;;10.40;99.90;;;;;;4965778;28;20253;-78
2021/10/19 07:46:20;;;;;;;13.43;12.33;;;10.40;99.90;;;;;;4965350;28;20263;-79
2021/10/19 07:48:47;;;;;;;10.50;9.60;;;10.50;99.90;;;;;;4976786;28;20672;-79
2021/10/19 07:51:14;;;;;;;12.87;11.83;;;10.60;99.90;;;;;;4979465;28;20249;-78
2021/10/19 07:53:41;;;;;;;16.13;15.03;;;10.60;99.90;;;;;;4981574;28;20198;-77
2021/10/19 07:56:09;;;;;;;12.27;11.33;;;10.60;99.90;;;;;;4981625;28;20194;-79
2021/10/19 07:58:36;;;;;;;15.73;14.53;;;10.60;99.90;;;;;;4982844;28;20198;-78
2021/10/19 08:01:03;;;;;;;13.03;12.03;;;10.70;99.90;;;;;;4983471;28;20707;-79
2021/10/19 08:03:31;;;;;;;14.50;13.30;;;10.80;99.90;;;;;;4984943;28;20205;-79
2021/10/19 08:05:58;;;;;;;17.93;16.60;;;10.80;99.90;;;;;;4962990;28;20194;-78
2021/10/19 08:08:25;;;;;;;16.87;15.60;;;10.90;99.90;;;;;;4961167;28;20211;-78
2021/10/19 08:10:51;;;;;;;18.20;16.83;;;10.90;99.90;;;;;;4964976;28;20223;-79
2021/10/19 08:13:20;;;;;;;18.20;16.80;;;10.90;99.90;;;;;;4963841;28;20195;-78
2021/10/19 08:15:47;;;;;;;18.00;16.60;;;11.00;99.90;;;;;;4982191;28;20281;-78
2021/10/19 08:18:14;;;;;;;16.70;15.30;;;11.10;99.90;;;;;;4962811;28;20216;-78
2021/10/19 08:20:41;;;;;;;17.57;16.43;;;11.10;99.90;;;;;;4982451;28;20218;-79
2021/10/19 08:23:09;;;;;;;16.83;15.37;;;11.10;99.90;;;;;;4979956;28;20203;-78
2021/10/19 08:25:37;;;;;;;16.40;15.07;;;11.10;99.90;;;;;;4986313;28;20211;-79
2021/10/19 08:28:05;;;;;;;16.93;15.53;;;11.10;99.90;;;;;;4984284;28;20278;-79
2021/10/19 08:30:33;;;;;;;16.60;15.40;;;11.10;99.90;;;;;;4985604;28;20767;-78
2021/10/19 08:33:00;;;;;;;17.07;15.83;;;11.10;99.90;;;;;;4966370;28;20207;-76
2021/10/19 08:35:27;;;;;;;16.47;15.07;;;11.20;99.90;;;;;;4984281;28;20221;-77
2021/10/19 08:37:54;;;;;;;17.67;16.37;;;11.40;99.90;;;;;;4966104;28;20233;-77
2021/10/19 08:40:22;;;;;;;17.33;16.00;;;11.50;99.90;;;;;;4986681;28;20217;-76
2021/10/19 08:42:51;;;;;;;19.00;17.37;;;11.60;99.90;;;;;;4981720;28;20256;-76
2021/10/19 08:45:19;;;;;;;18.17;16.60;;;11.50;99.90;;;;;;4962187;28;20722;-76
2021/10/19 08:47:48;;;;;;;18.63;17.13;;;11.70;99.90;;;;;;4983258;28;20202;-76
2021/10/19 08:50:19;;;;;;;17.53;16.13;;;11.80;99.90;;;;;;4983236;28;20231;-76
2021/10/19 08:52:46;;;;;;;15.07;13.80;;;11.90;99.90;;;;;;4985182;28;20332;-76
2021/10/19 08:55:14;;;;;;;10.83;9.87;;;12.00;99.90;;;;;;4983306;28;20732;-76
2021/10/19 08:57:41;;;;;;;17.70;16.50;;;12.20;99.90;;;;;;4993064;28;20249;-76
2021/10/19 09:00:09;;;;;;;16.60;15.40;;;12.40;99.90;;;;;;4967773;28;20608;-76
2021/10/19 09:02:38;;;;;;;8.93;8.03;;;12.50;99.90;;;;;;4984870;28;20197;-76
2021/10/19 09:05:13;;;;;;;10.83;9.73;;;12.60;99.90;;;;;;4959814;28;20214;-78
2021/10/19 09:07:40;;;;;;;10.13;9.17;;;12.80;99.90;;;;;;4986393;28;20204;-76
2021/10/19 09:10:15;;;;;;;10.03;9.13;;;12.90;99.90;;;;;;4983514;28;20271;-76
2021/10/19 09:12:52;;;;;;;9.77;8.80;;;13.00;99.90;;;;;;4984323;28;20279;-76
2021/10/19 09:15:21;;;;;;;10.73;9.73;;;13.00;99.90;;;;;;4990608;28;20255;-76
2021/10/19 09:17:48;;;;;;;10.50;9.50;;;13.00;99.90;;;;;;4993988;28;20596;-76
2021/10/19 09:20:19;;;;;;;10.70;9.50;;;13.00;99.90;;;;;;4987955;28;20247;-76
2021/10/19 09:23:00;;;;;;;12.90;11.87;;;13.00;99.90;;;;;;4978576;28;20248;-76
2021/10/19 09:25:30;;;;;;;15.57;14.50;;;13.00;99.90;;;;;;4985645;28;20292;-76
2021/10/19 09:28:00;;;;;;;17.17;15.97;;;13.00;99.90;;;;;;4982552;28;20270;-76
2021/10/19 09:30:44;;;;;;;16.90;15.60;;;13.00;99.90;;;;;;4981477;28;20232;-76
2021/10/19 09:33:14;;;;;;;16.20;15.10;;;13.00;99.90;;;;;;4981524;28;20646;-76
2021/10/19 09:35:43;;;;;;;13.83;12.83;;;13.00;99.90;;;;;;4966536;28;20585;-76
2021/10/19 09:38:12;;;;;;;13.07;12.07;;;12.90;99.90;;;;;;4982342;28;20269;-76
2021/10/19 09:40:41;;;;;;;10.60;9.67;;;12.90;99.90;;;;;;4983112;28;20295;-77
2021/10/19 09:43:10;;;;;;;8.33;7.27;;;12.90;99.90;;;;;;4982440;28;20720;-75
2021/10/19 09:45:40;;;;;;;12.30;11.23;;;12.90;99.90;;;;;;4974869;28;20224;-76
2021/10/19 09:48:12;;;;;;;14.17;13.07;;;12.80;99.90;;;;;;4983342;28;20257;-76
2021/10/19 09:50:39;;;;;;;16.53;15.40;;;12.80;99.90;;;;;;4986459;28;20221;-76
2021/10/19 09:53:09;;;;;;;8.63;6.30;;;12.80;99.90;;;;;;4983518;28;20720;-76
2021/10/19 09:55:38;;;;;;;8.07;7.27;;;12.80;99.90;;;;;;4962551;28;20205;-76
2021/10/19 09:58:05;;;;;;;10.70;9.90;;;12.90;99.90;;;;;;4980832;28;20670;-76
2021/10/19 10:00:33;;;;;;;15.60;14.60;;;13.10;99.90;;;;;;4983148;28;20699;-78
2021/10/19 10:03:03;;;;;;;15.27;14.27;;;13.10;99.90;;;;;;4958553;28;20292;-78
2021/10/19 10:05:30;;;;;;;15.20;14.23;;;13.20;99.90;;;;;;4983161;28;20194;-77
2021/10/19 10:07:58;;;;;;;15.37;14.37;;;13.30;99.90;;;;;;4967941;28;20223;-78
2021/10/19 10:10:27;;;;;;;14.43;13.53;;;13.30;99.90;;;;;;4979642;28;20217;-78
2021/10/19 10:13:02;;;;;;;14.43;13.47;;;13.30;99.90;;;;;;4983243;28;20229;-78
2021/10/19 10:15:32;;;;;;;14.60;13.70;;;13.30;99.90;;;;;;4965748;28;20200;-78
2021/10/19 10:18:02;;;;;;;14.30;13.40;;;13.40;99.90;;;;;;4975700;28;20658;-78
2021/10/19 10:20:34;;;;;;;14.50;13.60;;;13.50;99.90;;;;;;4983211;28;20306;-78
2021/10/19 10:23:13;;;;;;;14.07;13.17;;;13.70;99.90;;;;;;4963939;28;20209;-78
2021/10/19 10:25:42;;;;;;;14.70;13.80;;;13.80;99.90;;;;;;4986090;28;20208;-78
2021/10/19 10:28:14;;;;;;;6.23;5.63;;;14.00;99.90;;;;;;4980991;28;20216;-78
2021/10/19 10:30:42;;;;;;;11.93;11.13;;;14.20;99.90;;;;;;4980304;28;20223;-78
2021/10/19 10:33:09;;;;;;;8.27;7.57;;;14.30;99.90;;;;;;4968372;28;20209;-78
2021/10/19 10:35:43;;;;;;;7.83;7.23;;;14.40;99.90;;;;;;4983610;28;20258;-79
2021/10/19 10:38:10;;;;;;;9.60;8.90;;;14.50;99.90;;;;;;4968086;28;20206;-78
2021/10/19 10:40:39;;;;;;;9.30;8.63;;;14.60;99.90;;;;;;4968104;28;20234;-78
2021/10/19 10:43:20;;;;;;;12.30;11.50;;;14.70;99.90;;;;;;4968040;28;20212;-78
2021/10/19 10:45:48;;;;;;;4.67;4.30;;;14.70;99.90;;;;;;4979489;28;20568;-79
2021/10/19 10:48:18;;;;;;;13.43;12.43;;;14.70;99.90;;;;;;4981250;28;20195;-78
2021/10/19 10:50:44;;;;;;;6.23;5.63;;;14.80;99.90;;;;;;4984166;28;21321;-78
2021/10/19 10:53:13;;;;;;;9.80;9.10;;;14.80;99.90;;;;;;4983182;28;20199;-78
2021/10/19 10:55:42;;;;;;;9.10;8.50;;;14.80;99.90;;;;;;4979525;28;20204;-79
2021/10/19 10:58:09;;;;;;;6.60;6.10;;;14.80;99.90;;;;;;4979789;28;20200;-78
2021/10/19 11:00:37;;;;;;;8.03;7.43;;;14.80;99.90;;;;;;4952441;28;20230;-79
2021/10/19 11:03:10;;;;;;;12.90;12.00;;;14.80;99.90;;;;;;4979852;28;20226;-78
2021/10/19 11:05:38;;;;;;;9.13;8.43;;;14.80;99.90;;;;;;4983334;28;20245;-78
2021/10/19 11:08:05;;;;;;;8.77;8.17;;;14.80;99.90;;;;;;4983825;28;20253;-78
2021/10/19 11:10:32;;;;;;;6.83;6.33;;;14.90;99.90;;;;;;4982725;28;20211;-78
2021/10/19 11:13:01;;;;;;;6.33;5.83;;;14.90;99.90;;;;;;4983560;28;20200;-79
2021/10/19 11:15:28;;;;;;;10.17;9.50;;;14.90;99.90;;;;;;4983967;28;20199;-79
2021/10/19 11:17:57;;;;;;;11.90;11.20;;;15.00;99.90;;;;;;4979672;28;20230;-79
2021/10/19 11:20:28;;;;;;;5.23;4.87;;;15.10;99.90;;;;;;4960835;28;20505;-79
2021/10/19 11:22:55;;;;;;;5.80;5.40;;;15.30;99.90;;;;;;4953607;28;20230;-79
2021/10/19 11:25:22;;;;;;;9.10;8.47;;;15.40;99.90;;;;;;4978109;28;20734;-79
2021/10/19 11:27:52;;;;;;;12.83;12.03;;;15.60;99.90;;;;;;4973458;28;20208;-78
2021/10/19 11:30:19;;;;;;;10.70;10.00;;;15.70;99.90;;;;;;4980410;28;20713;-79
2021/10/19 11:32:46;;;;;;;8.83;8.20;;;15.70;99.90;;;;;;4985322;28;20224;-79
2021/10/19 11:35:15;;;;;;;7.77;7.17;;;15.80;99.90;;;;;;4983716;28;20204;-79
2021/10/19 11:37:42;;;;;;;8.33;7.73;;;15.80;99.90;;;;;;4962442;28;20203;-78
2021/10/19 11:40:11;;;;;;;6.30;5.67;;;15.80;99.90;;;;;;4981774;28;20258;-79
2021/10/19 11:42:46;;;;;;;5.93;5.43;;;15.90;99.90;;;;;;4983311;28;20200;-79
2021/10/19 11:45:14;;;;;;;9.07;8.37;;;16.00;99.90;;;;;;4976241;28;20290;-77
2021/10/19 11:47:49;;;;;;;4.33;3.77;;;16.00;99.90;;;;;;4981365;28;20204;-76
2021/10/19 11:50:21;;;;;;;12.97;12.17;;;15.90;99.90;;;;;;4980423;28;20207;-76
2021/10/19 11:52:48;;;;;;;12.93;12.07;;;15.90;99.90;;;;;;4963781;28;20287;-76
2021/10/19 11:55:17;;;;;;;12.67;11.97;;;15.80;99.90;;;;;;4963220;28;20213;-76
2021/10/19 11:57:48;;;;;;;12.90;12.10;;;15.80;99.90;;;;;;4985645;28;20680;-76
2021/10/19 12:00:16;;;;;;;13.60;12.70;;;15.80;99.90;;;;;;4967985;28;20208;-76
2021/10/19 12:02:54;;;;;;;13.03;12.20;;;15.60;99.90;;;;;;4982007;28;20559;-76
2021/10/19 12:05:28;;;;;;;12.87;12.07;;;15.60;99.90;;;;;;4964060;28;20213;-77
2021/10/19 12:07:56;;;;;;;13.20;12.30;;;15.60;99.90;;;;;;4976541;28;20218;-76
2021/10/19 12:10:25;;;;;;;13.30;12.43;;;15.60;99.90;;;;;;4964986;28;20274;-76
2021/10/19 12:12:54;;;;;;;13.10;12.30;;;15.60;99.90;;;;;;4976342;28;20221;-76
2021/10/19 12:15:22;;;;;;;13.33;12.53;;;15.70;99.90;;;;;;4976135;28;20201;-77
2021/10/19 12:17:57;;;;;;;13.10;12.20;;;15.70;99.90;;;;;;4966271;28;20292;-77
2021/10/19 12:20:28;;;;;;;13.10;12.30;;;15.80;99.90;;;;;;4988071;28;20277;-77
2021/10/19 12:23:00;;;;;;;13.27;12.47;;;15.80;99.90;;;;;;4976737;28;20189;-76
2021/10/19 12:25:34;;;;;;;12.73;12.00;;;15.90;99.90;;;;;;4977171;28;20205;-76
2021/10/19 12:28:02;;;;;;;13.60;12.70;;;15.90;99.90;;;;;;4984957;28;20198;-77
2021/10/19 12:30:36;;;;;;;13.87;13.00;;;15.90;99.90;;;;;;4966885;28;20234;-76
2021/10/19 12:33:16;;;;;;;13.60;12.80;;;15.80;99.90;;;;;;4966899;28;20232;-76
2021/10/19 12:35:55;;;;;;;13.40;12.53;;;15.70;99.90;;;;;;4968341;28;20208;-76
2021/10/19 12:38:28;;;;;;;13.43;12.53;;;15.70;99.90;;;;;;4984345;28;20271;-76
2021/10/19 12:41:05;;;;;;;14.30;13.40;;;15.70;99.90;;;;;;4955189;28;20241;-76
2021/10/19 12:43:32;;;;;;;13.37;12.57;;;15.70;99.90;;;;;;4978887;28;20290;-77